Accueil
METAR-TAF:

METAR-TAF

Aéroports :

Brighton, Angleterre

Aéroport de Shoreham

latitude: 50-50N, longitude: 000-17W, altitude: 2 m

Observation

Le bulletin a été fait il y a 19 minutes, à 09:20 UTC
Vent 12 kt de ouest
Température 4°C
Humidité 87%
Pression 998 hPa
Visibilité 10 km ou plus
Quelques nuages à une hauteur de 1800 ft

METAR: EGKA 160920Z 27012KT 9999 FEW018 04/02 Q0998

Heure: 09:39 (09:39 UTC)

Prévision

Le bulletin a été fait il y a 16 heures et 35 minutes, à 17:04 UTC
Prévision valable du 15 à 18 UTC au 15 à 20 UTC
Vent 14 kt de ouest
Visibilité 10 km ou plus
Nuages épars à une hauteur de 2000 ft
Probabilité 40% :
Temporairement
du 15 à 18 UTC au 15 à 20 UTC
Vent 18 kt de ouest/sud-ouest avec des rafales jusqu'à 28 kt
Visibilité: 6000 m
Nuages fragmentés à une hauteur de 1200 ft
averses de pluie

TAF: EGKA 151704Z 1518/1520 26014KT 9999 SCT020 PROB40 TEMPO 1518/1520 25018G28KT 6000 SHRA BKN012

Observations et prévisions météorologiques de plus de 4000 aéroports (messages METAR et TAF).

Les stations disponibles sont représentées par des disques jaunes et rouges sur la carte.

Passer la souris dessus pour voir le nom de la station.

Cliquer dessus pour voir les observations et prévisions météorologiques.

Pour changer de carte: cliquez sur les boutons verts avec une croix noire pour zoomer, sur le bouton vert avec un tiret pour effectuer un zoom arrière, ou sur les flèches vertes pour les cartes adjacentes.


METAR-TAF: